< < Back
Terminal Aerodrome Forecast


Current Version              Previous Versions:   1  2  3  4  5  6  7  8  9  

Terminal Aerodrome Forecast

790
FTUS44 KBMX 041140
TAFMGM
TAF
KMGM 041140Z 0412/0512 00000KT P6SM SCT080
     FM041500 12007KT P6SM SCT070
     FM050100 09002KT P6SM SKC=

Latest METAR

310
SAUS80 KWBC 041300 RRA
MTRMGM
METAR KMGM 041253Z 00000KT 10SM SCT080 19/14 A3026 RMK AO2 SLP245
T01940144


USA.gov is the U.S. government's official web portal to all federal, state and local government web resources and services.